createdAt,value
2023-03-01T00:04:40.514Z,11.17
2023-03-01T00:09:42.170Z,7.83
2023-03-01T00:14:43.745Z,8.07
2023-03-01T00:19:45.292Z,7.67
2023-03-01T00:24:46.920Z,7.83
2023-03-01T00:29:48.494Z,7.53
2023-03-01T00:34:54.968Z,8.53
2023-03-01T00:39:56.640Z,9.90
2023-03-01T00:44:59.093Z,8.47
2023-03-01T00:50:00.714Z,7.93
2023-03-01T00:55:02.285Z,9.30
2023-03-01T01:00:08.067Z,12.37
2023-03-01T01:05:09.927Z,10.47
2023-03-01T01:10:17.824Z,9.70
2023-03-01T01:15:19.371Z,9.40
2023-03-01T01:20:21.476Z,9.33
2023-03-01T01:25:25.848Z,8.80
2023-03-01T01:30:27.492Z,9.80
2023-03-01T01:35:29.122Z,9.67
2023-03-01T01:40:30.926Z,9.00
2023-03-01T01:45:35.500Z,8.53
2023-03-01T01:50:39.783Z,9.70
2023-03-01T01:55:45.790Z,9.90
2023-03-01T02:00:48.026Z,10.70
2023-03-01T02:05:58.068Z,10.37
2023-03-01T02:11:00.810Z,10.10
2023-03-01T02:16:06.296Z,10.33
2023-03-01T02:21:13.650Z,12.30
2023-03-01T02:26:20.598Z,10.50
2023-03-01T02:31:41.301Z,9.80
2023-03-01T02:36:51.283Z,8.57
2023-03-01T02:41:54.614Z,8.90
2023-03-01T02:46:58.016Z,9.00
2023-03-01T02:52:11.607Z,8.93
2023-03-01T02:57:13.432Z,8.87
2023-03-01T03:02:37.364Z,9.17
2023-03-01T03:07:52.728Z,9.17
2023-03-01T03:13:03.600Z,10.67
2023-03-01T03:18:08.060Z,8.93
2023-03-01T03:23:09.919Z,8.17
2023-03-01T03:28:11.606Z,9.10
2023-03-01T03:33:14.890Z,9.90
2023-03-01T03:38:20.078Z,9.33
2023-03-01T03:43:23.560Z,8.93
2023-03-01T03:48:26.023Z,10.47
2023-03-01T03:53:30.049Z,9.17
2023-03-01T03:58:31.677Z,9.27
2023-03-01T04:03:34.238Z,9.77
2023-03-01T04:08:35.920Z,9.40
2023-03-01T04:13:37.553Z,10.57
2023-03-01T04:18:39.089Z,9.63
2023-03-01T04:23:41.800Z,10.33
2023-03-01T04:28:47.115Z,9.07
2023-03-01T04:33:54.032Z,10.10
2023-03-01T04:38:56.523Z,9.97
2023-03-01T04:44:01.135Z,9.07
2023-03-01T04:49:04.112Z,9.33
2023-03-01T04:54:09.799Z,9.70
2023-03-01T04:59:13.487Z,9.80
2023-03-01T05:04:15.240Z,10.77
2023-03-01T05:09:17.006Z,11.07
2023-03-01T05:14:18.632Z,11.27
2023-03-01T05:19:23.649Z,9.47
2023-03-01T05:24:25.707Z,10.90
2023-03-01T05:29:29.408Z,11.13
2023-03-01T05:34:33.762Z,10.67
2023-03-01T05:39:35.575Z,11.10
2023-03-01T05:44:37.568Z,10.47
2023-03-01T05:49:39.877Z,10.23
2023-03-01T05:54:41.644Z,10.50
2023-03-01T05:59:43.238Z,10.53
2023-03-01T06:04:45.018Z,12.97
2023-03-01T06:09:46.718Z,9.70
2023-03-01T06:14:48.740Z,10.43
2023-03-01T06:19:50.312Z,14.17
2023-03-01T06:24:52.166Z,12.57
2023-03-01T06:29:53.982Z,16.13
2023-03-01T06:34:55.566Z,13.60
2023-03-01T06:39:57.190Z,13.20
2023-03-01T06:44:59.083Z,13.33
2023-03-01T06:50:01.545Z,11.63
2023-03-01T06:55:03.301Z,13.07
2023-03-01T07:00:06.028Z,9.40
2023-03-01T07:05:07.920Z,10.87
2023-03-01T07:10:10.503Z,10.30
2023-03-01T07:15:12.184Z,10.07
2023-03-01T07:20:13.976Z,10.07
2023-03-01T07:25:15.835Z,9.90
2023-03-01T07:30:17.615Z,10.20
2023-03-01T07:35:19.253Z,7.87
2023-03-01T07:40:21.090Z,11.27
2023-03-01T07:45:22.807Z,8.70
2023-03-01T07:50:24.567Z,8.33
2023-03-01T07:55:26.274Z,8.20
2023-03-01T08:00:27.937Z,9.07
2023-03-01T08:05:30.125Z,7.90
2023-03-01T08:10:31.701Z,8.67
2023-03-01T08:15:33.317Z,8.57
2023-03-01T08:20:35.059Z,8.80
2023-03-01T08:25:36.708Z,8.90
2023-03-01T08:30:38.329Z,9.90
2023-03-01T08:35:39.961Z,9.97
2023-03-01T08:40:41.518Z,10.77
2023-03-01T08:45:43.495Z,11.10
2023-03-01T08:50:45.090Z,9.93
2023-03-01T08:55:46.676Z,11.57
2023-03-01T09:00:48.266Z,9.63
2023-03-01T09:05:51.310Z,8.50
2023-03-01T09:10:53.054Z,10.83
2023-03-01T09:15:54.904Z,11.70
2023-03-01T09:21:09.421Z,9.83
2023-03-01T09:26:13.424Z,9.07
2023-03-01T09:31:15.790Z,11.40
2023-03-01T09:36:19.953Z,10.37
2023-03-01T09:41:42.937Z,9.53
2023-03-01T09:46:46.339Z,8.53
2023-03-01T09:52:00.259Z,7.97
2023-03-01T09:57:23.277Z,8.67
2023-03-01T10:02:30.208Z,7.80
2023-03-01T10:08:01.338Z,8.97
2023-03-01T10:13:18.024Z,8.43
2023-03-01T10:18:23.033Z,8.00
2023-03-01T10:23:26.078Z,8.80
2023-03-01T10:28:32.384Z,7.20
2023-03-01T10:33:37.049Z,7.47
2023-03-01T10:38:53.149Z,6.93
2023-03-01T10:44:01.279Z,7.13
2023-03-01T10:49:20.709Z,6.40
2023-03-01T10:54:30.989Z,7.73
2023-03-01T10:59:37.537Z,12.30
2023-03-01T11:04:39.417Z,6.73
2023-03-01T11:09:41.269Z,8.27
2023-03-01T11:14:51.637Z,7.10
2023-03-01T11:20:07.086Z,8.53
2023-03-01T11:25:13.609Z,7.40
2023-03-01T11:30:42.020Z,7.30
2023-03-01T11:36:10.947Z,7.63
2023-03-01T11:41:18.924Z,8.20
2023-03-01T11:46:32.490Z,7.50
2023-03-01T11:51:42.953Z,6.47
2023-03-01T11:56:58.959Z,6.73
2023-03-01T12:02:06.351Z,6.70
2023-03-01T12:07:19.150Z,5.87
2023-03-01T12:12:48.840Z,5.17
2023-03-01T12:18:16.853Z,6.87
2023-03-01T12:23:40.423Z,5.33
2023-03-01T12:28:53.034Z,5.13
2023-03-01T12:34:12.516Z,4.97
2023-03-01T12:39:33.852Z,5.00
2023-03-01T12:44:57.330Z,4.40
2023-03-01T12:50:03.288Z,6.00
2023-03-01T12:55:10.444Z,4.57
2023-03-01T13:00:32.301Z,5.67
2023-03-01T13:05:54.743Z,7.63
2023-03-01T13:11:02.795Z,5.13
2023-03-01T13:16:28.737Z,4.03
2023-03-01T13:21:32.155Z,5.60
2023-03-01T13:27:11.998Z,5.40
2023-03-01T13:32:31.698Z,4.40
2023-03-01T13:37:45.300Z,6.77
2023-03-01T13:42:56.430Z,5.97
2023-03-01T13:48:26.122Z,5.10
2023-03-01T13:53:35.234Z,4.40
2023-03-01T13:58:54.744Z,5.40
2023-03-01T14:03:56.631Z,6.07
2023-03-01T14:09:03.770Z,4.23
2023-03-01T14:14:25.084Z,3.40
2023-03-01T14:19:33.631Z,4.23
2023-03-01T14:24:36.530Z,4.40
2023-03-01T14:29:39.355Z,5.47
2023-03-01T14:34:46.501Z,5.20
2023-03-01T14:39:48.526Z,4.70
2023-03-01T14:44:54.042Z,5.63
2023-03-01T14:50:00.313Z,3.80
2023-03-01T14:55:03.043Z,4.00
2023-03-01T15:00:07.409Z,3.70
2023-03-01T15:05:09.515Z,3.90
2023-03-01T15:10:21.658Z,4.80
2023-03-01T15:15:38.094Z,5.37
2023-03-01T15:20:39.989Z,3.60
2023-03-01T15:25:45.577Z,3.80
2023-03-01T15:30:53.795Z,4.43
2023-03-01T15:35:57.728Z,3.40
2023-03-01T15:41:02.212Z,3.80
2023-03-01T15:46:05.165Z,3.10
2023-03-01T15:51:12.710Z,5.23
2023-03-01T15:56:15.153Z,3.37
2023-03-01T16:01:18.066Z,3.43
2023-03-01T16:06:19.665Z,3.10
2023-03-01T16:11:22.229Z,4.03
2023-03-01T16:16:23.935Z,4.40
2023-03-01T16:21:26.020Z,4.77
2023-03-01T16:26:27.629Z,4.10
2023-03-01T16:31:30.360Z,6.20
2023-03-01T16:36:32.620Z,6.07
2023-03-01T16:41:34.363Z,4.97
2023-03-01T16:46:36.133Z,5.57
2023-03-01T16:51:38.024Z,7.00
2023-03-01T16:56:40.643Z,6.53
2023-03-01T17:01:42.598Z,4.90
2023-03-01T17:06:44.286Z,5.63
2023-03-01T17:11:45.880Z,7.17
2023-03-01T17:16:47.779Z,8.27
2023-03-01T17:21:49.467Z,5.07
2023-03-01T17:26:51.073Z,4.63
2023-03-01T17:31:54.830Z,5.87
2023-03-01T17:36:56.878Z,5.60
2023-03-01T17:41:58.676Z,6.80
2023-03-01T17:47:01.547Z,5.97
2023-03-01T17:52:03.279Z,5.43
2023-03-01T17:57:04.810Z,4.90
2023-03-01T18:02:06.625Z,6.17
2023-03-01T18:07:08.185Z,3.80
2023-03-01T18:12:10.657Z,4.03
2023-03-01T18:17:12.386Z,5.70
2023-03-01T18:22:14.454Z,4.77
2023-03-01T18:27:16.113Z,6.73
2023-03-01T18:32:17.963Z,6.47
2023-03-01T18:37:19.604Z,5.00
2023-03-01T18:42:22.157Z,5.00
2023-03-01T18:47:23.779Z,6.67
2023-03-01T18:52:25.327Z,6.60
2023-03-01T18:57:27.174Z,5.80
2023-03-01T19:02:28.781Z,6.43
2023-03-01T19:07:30.359Z,5.37
2023-03-01T19:12:33.870Z,7.10
2023-03-01T19:17:36.676Z,5.80
2023-03-01T19:22:38.781Z,6.23
2023-03-01T19:27:40.563Z,7.97
2023-03-01T19:32:42.095Z,6.37
2023-03-01T19:37:43.674Z,7.77
2023-03-01T19:42:45.205Z,8.20
2023-03-01T19:47:48.737Z,9.57
2023-03-01T19:52:50.477Z,12.40
2023-03-01T19:57:52.275Z,9.63
2023-03-01T20:02:53.947Z,10.03
2023-03-01T20:07:57.607Z,8.23
2023-03-01T20:13:00.087Z,8.00
2023-03-01T20:18:01.739Z,10.37
2023-03-01T20:23:03.519Z,7.47
2023-03-01T20:28:05.394Z,8.57
2023-03-01T20:33:07.409Z,7.60
2023-03-01T20:38:09.096Z,9.63
2023-03-01T20:43:11.018Z,8.73
2023-03-01T20:48:14.071Z,8.43
2023-03-01T20:53:15.870Z,9.77
2023-03-01T20:58:17.559Z,10.57
2023-03-01T21:03:19.527Z,11.07
2023-03-01T21:08:21.240Z,9.37
2023-03-01T21:13:23.530Z,10.60
2023-03-01T21:18:29.763Z,11.57
2023-03-01T21:23:32.991Z,13.90
2023-03-01T21:28:35.711Z,11.13
2023-03-01T21:33:38.117Z,10.63
2023-03-01T21:38:41.787Z,13.17
2023-03-01T21:43:45.036Z,10.00
2023-03-01T21:48:49.479Z,10.43
2023-03-01T21:53:51.446Z,9.10
2023-03-01T21:58:53.637Z,10.57
2023-03-01T22:04:00.210Z,12.13
2023-03-01T22:09:06.113Z,11.00
2023-03-01T22:14:08.162Z,11.13
2023-03-01T22:19:09.872Z,11.60
2023-03-01T22:24:12.286Z,10.23
2023-03-01T22:29:19.993Z,13.73
2023-03-01T22:34:22.576Z,8.20
2023-03-01T22:39:24.259Z,10.67
2023-03-01T22:44:26.470Z,11.13
2023-03-01T22:49:28.379Z,14.53
2023-03-01T22:54:29.947Z,11.13
2023-03-01T22:59:31.587Z,9.57
2023-03-01T23:04:33.135Z,9.97
2023-03-01T23:09:35.478Z,11.87
2023-03-01T23:14:38.154Z,10.00
2023-03-01T23:19:39.812Z,7.87
2023-03-01T23:24:41.534Z,9.30
2023-03-01T23:29:44.423Z,9.00
2023-03-01T23:34:46.084Z,9.00
2023-03-01T23:39:47.799Z,7.60
2023-03-01T23:44:49.468Z,8.97
2023-03-01T23:49:51.287Z,10.10
2023-03-01T23:54:52.942Z,9.60
2023-03-01T23:59:54.672Z,8.40
